sensor_id;sensor_type;location;lat;lon;timestamp;P1;durP1;ratioP1;P2;durP2;ratioP2
60819;SDS011;46641;48.904;9.126;2023-02-15T00:02:36;19.07;;;13.57;;
60819;SDS011;46641;48.904;9.126;2023-02-15T00:07:27;17.03;;;12.93;;
60819;SDS011;46641;48.904;9.126;2023-02-15T00:12:18;17.85;;;13.60;;
60819;SDS011;46641;48.904;9.126;2023-02-15T00:17:08;18.43;;;14.43;;
60819;SDS011;46641;48.904;9.126;2023-02-15T00:21:58;20.40;;;14.85;;
60819;SDS011;46641;48.904;9.126;2023-02-15T00:26:49;26.30;;;16.47;;
60819;SDS011;46641;48.904;9.126;2023-02-15T00:31:39;35.00;;;20.63;;
60819;SDS011;46641;48.904;9.126;2023-02-15T00:36:30;34.00;;;20.27;;
60819;SDS011;46641;48.904;9.126;2023-02-15T00:41:20;48.10;;;19.87;;
60819;SDS011;46641;48.904;9.126;2023-02-15T00:46:10;28.38;;;16.83;;
60819;SDS011;46641;48.904;9.126;2023-02-15T00:51:00;34.47;;;17.00;;
60819;SDS011;46641;48.904;9.126;2023-02-15T00:55:51;21.50;;;14.30;;
60819;SDS011;46641;48.904;9.126;2023-02-15T01:00:44;24.83;;;14.87;;
60819;SDS011;46641;48.904;9.126;2023-02-15T01:05:35;21.20;;;13.87;;
60819;SDS011;46641;48.904;9.126;2023-02-15T01:10:26;22.90;;;14.20;;
60819;SDS011;46641;48.904;9.126;2023-02-15T01:15:17;23.27;;;14.13;;
60819;SDS011;46641;48.904;9.126;2023-02-15T01:20:08;21.90;;;13.97;;
60819;SDS011;46641;48.904;9.126;2023-02-15T01:24:58;23.90;;;14.50;;
60819;SDS011;46641;48.904;9.126;2023-02-15T01:29:48;21.90;;;13.35;;
60819;SDS011;46641;48.904;9.126;2023-02-15T01:34:39;17.60;;;12.47;;
60819;SDS011;46641;48.904;9.126;2023-02-15T01:39:29;17.88;;;12.65;;
60819;SDS011;46641;48.904;9.126;2023-02-15T01:44:40;16.60;;;11.23;;
60819;SDS011;46641;48.904;9.126;2023-02-15T01:49:32;16.70;;;11.67;;
60819;SDS011;46641;48.904;9.126;2023-02-15T01:54:25;15.47;;;11.70;;
60819;SDS011;46641;48.904;9.126;2023-02-15T01:59:20;16.90;;;12.17;;
60819;SDS011;46641;48.904;9.126;2023-02-15T02:04:33;18.90;;;10.90;;
60819;SDS011;46641;48.904;9.126;2023-02-15T02:09:29;15.07;;;10.20;;
60819;SDS011;46641;48.904;9.126;2023-02-15T02:14:20;14.60;;;11.50;;
60819;SDS011;46641;48.904;9.126;2023-02-15T02:19:22;13.17;;;11.60;;
60819;SDS011;46641;48.904;9.126;2023-02-15T02:24:23;12.30;;;10.20;;
60819;SDS011;46641;48.904;9.126;2023-02-15T02:29:33;12.93;;;10.10;;
60819;SDS011;46641;48.904;9.126;2023-02-15T02:34:42;14.80;;;11.23;;
60819;SDS011;46641;48.904;9.126;2023-02-15T02:40:03;19.87;;;9.80;;
60819;SDS011;46641;48.904;9.126;2023-02-15T02:44:54;13.90;;;9.27;;
60819;SDS011;46641;48.904;9.126;2023-02-15T02:49:52;11.10;;;8.20;;
60819;SDS011;46641;48.904;9.126;2023-02-15T02:54:49;10.80;;;7.83;;
60819;SDS011;46641;48.904;9.126;2023-02-15T02:59:40;9.93;;;7.63;;
60819;SDS011;46641;48.904;9.126;2023-02-15T03:04:37;14.33;;;7.70;;
60819;SDS011;46641;48.904;9.126;2023-02-15T03:09:31;13.60;;;8.50;;
60819;SDS011;46641;48.904;9.126;2023-02-15T03:14:31;11.47;;;8.20;;
60819;SDS011;46641;48.904;9.126;2023-02-15T03:19:23;11.17;;;8.07;;
60819;SDS011;46641;48.904;9.126;2023-02-15T03:24:21;12.80;;;8.70;;
60819;SDS011;46641;48.904;9.126;2023-02-15T03:29:15;9.87;;;8.50;;
60819;SDS011;46641;48.904;9.126;2023-02-15T03:34:10;10.57;;;8.50;;
60819;SDS011;46641;48.904;9.126;2023-02-15T03:39:23;9.10;;;7.10;;
60819;SDS011;46641;48.904;9.126;2023-02-15T03:44:21;17.03;;;8.57;;
60819;SDS011;46641;48.904;9.126;2023-02-15T03:49:22;9.50;;;7.10;;
60819;SDS011;46641;48.904;9.126;2023-02-15T03:59:35;8.23;;;6.60;;
60819;SDS011;46641;48.904;9.126;2023-02-15T04:04:45;13.73;;;8.10;;
60819;SDS011;46641;48.904;9.126;2023-02-15T04:09:37;9.33;;;7.70;;
60819;SDS011;46641;48.904;9.126;2023-02-15T04:14:45;9.60;;;7.90;;
60819;SDS011;46641;48.904;9.126;2023-02-15T04:19:54;9.33;;;7.13;;
60819;SDS011;46641;48.904;9.126;2023-02-15T04:25:03;11.37;;;7.77;;
60819;SDS011;46641;48.904;9.126;2023-02-15T04:30:01;7.90;;;7.10;;
60819;SDS011;46641;48.904;9.126;2023-02-15T04:34:51;11.10;;;7.37;;
60819;SDS011;46641;48.904;9.126;2023-02-15T04:39:42;11.93;;;8.07;;
60819;SDS011;46641;48.904;9.126;2023-02-15T04:44:32;10.70;;;9.27;;
60819;SDS011;46641;48.904;9.126;2023-02-15T04:49:22;10.15;;;8.57;;
60819;SDS011;46641;48.904;9.126;2023-02-15T04:54:12;11.65;;;8.85;;
60819;SDS011;46641;48.904;9.126;2023-02-15T04:59:03;12.10;;;9.80;;
60819;SDS011;46641;48.904;9.126;2023-02-15T05:03:53;14.30;;;10.00;;
60819;SDS011;46641;48.904;9.126;2023-02-15T05:08:43;12.10;;;8.87;;
60819;SDS011;46641;48.904;9.126;2023-02-15T05:13:34;13.55;;;10.20;;
60819;SDS011;46641;48.904;9.126;2023-02-15T05:18:24;11.40;;;9.80;;
60819;SDS011;46641;48.904;9.126;2023-02-15T05:23:14;13.30;;;11.20;;
60819;SDS011;46641;48.904;9.126;2023-02-15T05:28:04;13.38;;;10.45;;
60819;SDS011;46641;48.904;9.126;2023-02-15T05:33:10;12.77;;;9.83;;
60819;SDS011;46641;48.904;9.126;2023-02-15T05:38:00;10.32;;;9.10;;
60819;SDS011;46641;48.904;9.126;2023-02-15T05:42:50;10.20;;;8.53;;
60819;SDS011;46641;48.904;9.126;2023-02-15T05:47:41;11.05;;;9.05;;
60819;SDS011;46641;48.904;9.126;2023-02-15T05:52:31;11.97;;;8.73;;
60819;SDS011;46641;48.904;9.126;2023-02-15T05:57:22;13.83;;;10.13;;
60819;SDS011;46641;48.904;9.126;2023-02-15T06:02:12;11.93;;;9.90;;
60819;SDS011;46641;48.904;9.126;2023-02-15T06:07:02;13.73;;;9.90;;
60819;SDS011;46641;48.904;9.126;2023-02-15T06:11:53;21.25;;;9.85;;
60819;SDS011;46641;48.904;9.126;2023-02-15T06:16:43;16.05;;;14.35;;
60819;SDS011;46641;48.904;9.126;2023-02-15T06:21:33;17.05;;;12.10;;
60819;SDS011;46641;48.904;9.126;2023-02-15T06:26:23;15.10;;;11.77;;
60819;SDS011;46641;48.904;9.126;2023-02-15T06:31:14;15.20;;;11.07;;
60819;SDS011;46641;48.904;9.126;2023-02-15T06:36:05;14.37;;;11.43;;
60819;SDS011;46641;48.904;9.126;2023-02-15T06:40:55;16.37;;;10.50;;
60819;SDS011;46641;48.904;9.126;2023-02-15T06:45:46;15.10;;;11.13;;
60819;SDS011;46641;48.904;9.126;2023-02-15T06:50:37;24.13;;;16.08;;
60819;SDS011;46641;48.904;9.126;2023-02-15T06:55:27;16.40;;;12.37;;
60819;SDS011;46641;48.904;9.126;2023-02-15T07:00:18;16.17;;;11.87;;
60819;SDS011;46641;48.904;9.126;2023-02-15T07:05:08;14.87;;;11.67;;
60819;SDS011;46641;48.904;9.126;2023-02-15T07:09:59;15.00;;;11.63;;
60819;SDS011;46641;48.904;9.126;2023-02-15T07:14:49;13.15;;;11.05;;
60819;SDS011;46641;48.904;9.126;2023-02-15T07:19:39;13.20;;;10.07;;
60819;SDS011;46641;48.904;9.126;2023-02-15T07:24:30;16.60;;;11.83;;
60819;SDS011;46641;48.904;9.126;2023-02-15T07:29:21;12.80;;;10.43;;
60819;SDS011;46641;48.904;9.126;2023-02-15T07:34:11;18.83;;;15.97;;
60819;SDS011;46641;48.904;9.126;2023-02-15T07:39:02;20.07;;;13.73;;
60819;SDS011;46641;48.904;9.126;2023-02-15T07:43:52;14.17;;;10.67;;
60819;SDS011;46641;48.904;9.126;2023-02-15T07:48:42;13.48;;;10.43;;
60819;SDS011;46641;48.904;9.126;2023-02-15T07:53:34;12.43;;;10.13;;
60819;SDS011;46641;48.904;9.126;2023-02-15T07:58:26;14.43;;;11.43;;
60819;SDS011;46641;48.904;9.126;2023-02-15T08:03:36;15.97;;;10.93;;
60819;SDS011;46641;48.904;9.126;2023-02-15T08:08:26;17.83;;;12.33;;
60819;SDS011;46641;48.904;9.126;2023-02-15T08:13:20;16.80;;;13.13;;
60819;SDS011;46641;48.904;9.126;2023-02-15T08:18:10;15.00;;;11.07;;
60819;SDS011;46641;48.904;9.126;2023-02-15T08:23:01;13.40;;;9.50;;
60819;SDS011;46641;48.904;9.126;2023-02-15T08:27:51;14.13;;;9.83;;
60819;SDS011;46641;48.904;9.126;2023-02-15T08:32:41;16.47;;;12.00;;
60819;SDS011;46641;48.904;9.126;2023-02-15T08:37:31;14.40;;;12.33;;
60819;SDS011;46641;48.904;9.126;2023-02-15T08:42:22;16.23;;;11.00;;
60819;SDS011;46641;48.904;9.126;2023-02-15T08:47:12;16.77;;;12.33;;
60819;SDS011;46641;48.904;9.126;2023-02-15T08:52:03;14.63;;;11.40;;
60819;SDS011;46641;48.904;9.126;2023-02-15T08:56:53;18.53;;;12.67;;
60819;SDS011;46641;48.904;9.126;2023-02-15T09:01:44;17.50;;;13.37;;
60819;SDS011;46641;48.904;9.126;2023-02-15T09:06:35;18.03;;;13.33;;
60819;SDS011;46641;48.904;9.126;2023-02-15T09:11:30;16.13;;;12.83;;
60819;SDS011;46641;48.904;9.126;2023-02-15T09:16:26;18.60;;;13.60;;
60819;SDS011;46641;48.904;9.126;2023-02-15T09:21:20;19.83;;;13.90;;
60819;SDS011;46641;48.904;9.126;2023-02-15T09:26:13;19.27;;;14.73;;
60819;SDS011;46641;48.904;9.126;2023-02-15T09:31:13;19.60;;;15.23;;
60819;SDS011;46641;48.904;9.126;2023-02-15T09:36:06;18.83;;;13.27;;
60819;SDS011;46641;48.904;9.126;2023-02-15T09:46:24;21.53;;;15.33;;
60819;SDS011;46641;48.904;9.126;2023-02-15T09:56:19;19.77;;;14.00;;
60819;SDS011;46641;48.904;9.126;2023-02-15T10:01:29;18.83;;;14.53;;
60819;SDS011;46641;48.904;9.126;2023-02-15T10:06:45;17.60;;;13.37;;
60819;SDS011;46641;48.904;9.126;2023-02-15T10:27:21;17.63;;;12.73;;
60819;SDS011;46641;48.904;9.126;2023-02-15T10:53:11;24.90;;;18.23;;
60819;SDS011;46641;48.904;9.126;2023-02-15T11:07:54;24.15;;;17.35;;
60819;SDS011;46641;48.904;9.126;2023-02-15T11:12:49;23.80;;;17.57;;
60819;SDS011;46641;48.904;9.126;2023-02-15T11:17:41;22.37;;;18.13;;
60819;SDS011;46641;48.904;9.126;2023-02-15T11:22:36;26.30;;;18.10;;
60819;SDS011;46641;48.904;9.126;2023-02-15T11:27:30;24.80;;;19.13;;
60819;SDS011;46641;48.904;9.126;2023-02-15T11:32:26;24.97;;;18.83;;
60819;SDS011;46641;48.904;9.126;2023-02-15T11:37:37;27.33;;;19.37;;
60819;SDS011;46641;48.904;9.126;2023-02-15T11:42:29;24.93;;;17.87;;
60819;SDS011;46641;48.904;9.126;2023-02-15T11:47:21;23.63;;;18.90;;
60819;SDS011;46641;48.904;9.126;2023-02-15T11:52:12;25.23;;;18.42;;
60819;SDS011;46641;48.904;9.126;2023-02-15T11:57:17;21.97;;;16.80;;
60819;SDS011;46641;48.904;9.126;2023-02-15T12:02:15;17.03;;;12.33;;
60819;SDS011;46641;48.904;9.126;2023-02-15T12:12:26;22.90;;;16.73;;
60819;SDS011;46641;48.904;9.126;2023-02-15T12:17:17;22.07;;;17.37;;
60819;SDS011;46641;48.904;9.126;2023-02-15T12:27:23;18.60;;;15.33;;
60819;SDS011;46641;48.904;9.126;2023-02-15T12:32:24;20.10;;;16.43;;
60819;SDS011;46641;48.904;9.126;2023-02-15T12:37:17;21.30;;;16.87;;
60819;SDS011;46641;48.904;9.126;2023-02-15T12:42:15;21.53;;;17.57;;
60819;SDS011;46641;48.904;9.126;2023-02-15T12:52:13;19.47;;;16.23;;
60819;SDS011;46641;48.904;9.126;2023-02-15T13:02:24;23.47;;;17.57;;
60819;SDS011;46641;48.904;9.126;2023-02-15T13:07:18;21.50;;;18.53;;
60819;SDS011;46641;48.904;9.126;2023-02-15T13:12:11;23.63;;;17.60;;
60819;SDS011;46641;48.904;9.126;2023-02-15T13:17:02;22.10;;;17.43;;
60819;SDS011;46641;48.904;9.126;2023-02-15T13:21:54;22.70;;;17.60;;
60819;SDS011;46641;48.904;9.126;2023-02-15T13:26:46;19.07;;;17.03;;
60819;SDS011;46641;48.904;9.126;2023-02-15T13:31:37;21.90;;;17.43;;
60819;SDS011;46641;48.904;9.126;2023-02-15T14:25:33;24.33;;;18.83;;
60819;SDS011;46641;48.904;9.126;2023-02-15T14:30:32;28.48;;;25.58;;
60819;SDS011;46641;48.904;9.126;2023-02-15T14:35:27;21.83;;;18.40;;
60819;SDS011;46641;48.904;9.126;2023-02-15T14:40:31;24.53;;;18.83;;
60819;SDS011;46641;48.904;9.126;2023-02-15T14:45:58;23.17;;;17.27;;
60819;SDS011;46641;48.904;9.126;2023-02-15T14:50:57;20.50;;;18.30;;
60819;SDS011;46641;48.904;9.126;2023-02-15T14:55:47;22.57;;;17.83;;
60819;SDS011;46641;48.904;9.126;2023-02-15T15:01:09;24.43;;;19.87;;
60819;SDS011;46641;48.904;9.126;2023-02-15T15:06:01;22.83;;;18.97;;
60819;SDS011;46641;48.904;9.126;2023-02-15T15:10:54;22.80;;;17.90;;
60819;SDS011;46641;48.904;9.126;2023-02-15T15:15:45;23.07;;;18.87;;
60819;SDS011;46641;48.904;9.126;2023-02-15T15:20:38;24.33;;;19.33;;
60819;SDS011;46641;48.904;9.126;2023-02-15T15:25:40;23.20;;;18.77;;
60819;SDS011;46641;48.904;9.126;2023-02-15T15:50:53;22.73;;;17.93;;
60819;SDS011;46641;48.904;9.126;2023-02-15T15:55:49;23.53;;;17.97;;
60819;SDS011;46641;48.904;9.126;2023-02-15T16:05:38;22.83;;;17.47;;
60819;SDS011;46641;48.904;9.126;2023-02-15T16:10:29;21.63;;;17.77;;
60819;SDS011;46641;48.904;9.126;2023-02-15T16:15:28;26.57;;;18.30;;
60819;SDS011;46641;48.904;9.126;2023-02-15T16:20:29;20.90;;;16.73;;
60819;SDS011;46641;48.904;9.126;2023-02-15T16:25:30;23.10;;;18.37;;
60819;SDS011;46641;48.904;9.126;2023-02-15T16:30:33;22.97;;;18.70;;
60819;SDS011;46641;48.904;9.126;2023-02-15T16:35:25;25.13;;;20.57;;
60819;SDS011;46641;48.904;9.126;2023-02-15T16:40:25;24.97;;;19.50;;
60819;SDS011;46641;48.904;9.126;2023-02-15T16:45:22;24.60;;;19.07;;
60819;SDS011;46641;48.904;9.126;2023-02-15T16:55:22;21.63;;;18.83;;
60819;SDS011;46641;48.904;9.126;2023-02-15T17:00:24;22.70;;;18.20;;
60819;SDS011;46641;48.904;9.126;2023-02-15T17:05:17;19.93;;;16.53;;
60819;SDS011;46641;48.904;9.126;2023-02-15T17:10:29;19.53;;;16.57;;
60819;SDS011;46641;48.904;9.126;2023-02-15T17:15:35;23.57;;;17.87;;
60819;SDS011;46641;48.904;9.126;2023-02-15T17:20:27;24.17;;;17.23;;
60819;SDS011;46641;48.904;9.126;2023-02-15T17:25:37;20.27;;;16.17;;
60819;SDS011;46641;48.904;9.126;2023-02-15T17:30:31;20.67;;;16.70;;
60819;SDS011;46641;48.904;9.126;2023-02-15T17:35:27;22.27;;;16.90;;
60819;SDS011;46641;48.904;9.126;2023-02-15T17:45:17;22.57;;;16.80;;
60819;SDS011;46641;48.904;9.126;2023-02-15T17:50:14;21.13;;;17.17;;
60819;SDS011;46641;48.904;9.126;2023-02-15T17:55:12;22.53;;;17.20;;
60819;SDS011;46641;48.904;9.126;2023-02-15T18:00:23;21.93;;;16.73;;
60819;SDS011;46641;48.904;9.126;2023-02-15T18:05:31;30.30;;;18.97;;
60819;SDS011;46641;48.904;9.126;2023-02-15T18:10:40;21.83;;;17.07;;
60819;SDS011;46641;48.904;9.126;2023-02-15T18:15:49;21.53;;;17.00;;
60819;SDS011;46641;48.904;9.126;2023-02-15T18:20:40;25.13;;;19.00;;
60819;SDS011;46641;48.904;9.126;2023-02-15T18:25:32;23.43;;;17.97;;
60819;SDS011;46641;48.904;9.126;2023-02-15T18:30:23;24.23;;;18.40;;
60819;SDS011;46641;48.904;9.126;2023-02-15T18:35:16;33.03;;;27.73;;
60819;SDS011;46641;48.904;9.126;2023-02-15T18:40:12;33.80;;;27.50;;
60819;SDS011;46641;48.904;9.126;2023-02-15T18:45:21;26.00;;;20.23;;
60819;SDS011;46641;48.904;9.126;2023-02-15T18:50:14;25.23;;;20.30;;
60819;SDS011;46641;48.904;9.126;2023-02-15T18:55:15;22.73;;;18.97;;
60819;SDS011;46641;48.904;9.126;2023-02-15T19:00:12;21.93;;;17.87;;
60819;SDS011;46641;48.904;9.126;2023-02-15T19:05:05;24.67;;;19.50;;
60819;SDS011;46641;48.904;9.126;2023-02-15T19:09:56;22.70;;;18.10;;
60819;SDS011;46641;48.904;9.126;2023-02-15T19:14:49;24.63;;;18.43;;
60819;SDS011;46641;48.904;9.126;2023-02-15T19:19:42;26.17;;;21.10;;
60819;SDS011;46641;48.904;9.126;2023-02-15T19:24:36;20.83;;;17.63;;
60819;SDS011;46641;48.904;9.126;2023-02-15T19:29:28;23.30;;;19.10;;
60819;SDS011;46641;48.904;9.126;2023-02-15T19:34:19;27.43;;;20.97;;
60819;SDS011;46641;48.904;9.126;2023-02-15T19:39:43;33.13;;;24.17;;
60819;SDS011;46641;48.904;9.126;2023-02-15T19:44:29;39.53;;;27.67;;
60819;SDS011;46641;48.904;9.126;2023-02-15T19:49:19;44.33;;;31.70;;
60819;SDS011;46641;48.904;9.126;2023-02-15T19:54:29;31.73;;;24.93;;
60819;SDS011;46641;48.904;9.126;2023-02-15T19:59:23;40.03;;;28.53;;
60819;SDS011;46641;48.904;9.126;2023-02-15T20:04:15;42.13;;;29.90;;
60819;SDS011;46641;48.904;9.126;2023-02-15T20:09:06;40.47;;;29.93;;
60819;SDS011;46641;48.904;9.126;2023-02-15T20:13:58;51.07;;;36.00;;
60819;SDS011;46641;48.904;9.126;2023-02-15T20:18:49;62.75;;;49.72;;
60819;SDS011;46641;48.904;9.126;2023-02-15T20:23:39;57.70;;;46.10;;
60819;SDS011;46641;48.904;9.126;2023-02-15T20:28:30;51.00;;;38.47;;
60819;SDS011;46641;48.904;9.126;2023-02-15T20:33:20;46.87;;;39.60;;
60819;SDS011;46641;48.904;9.126;2023-02-15T20:38:17;25.53;;;20.93;;
60819;SDS011;46641;48.904;9.126;2023-02-15T20:43:09;26.60;;;20.67;;
60819;SDS011;46641;48.904;9.126;2023-02-15T20:48:04;24.27;;;18.83;;
60819;SDS011;46641;48.904;9.126;2023-02-15T20:52:54;22.63;;;19.67;;
60819;SDS011;46641;48.904;9.126;2023-02-15T20:57:46;25.30;;;19.53;;
60819;SDS011;46641;48.904;9.126;2023-02-15T21:02:37;26.90;;;21.63;;
60819;SDS011;46641;48.904;9.126;2023-02-15T21:07:27;30.60;;;25.67;;
60819;SDS011;46641;48.904;9.126;2023-02-15T21:12:17;30.67;;;25.03;;
60819;SDS011;46641;48.904;9.126;2023-02-15T21:17:10;28.40;;;22.93;;
60819;SDS011;46641;48.904;9.126;2023-02-15T21:22:01;33.87;;;25.70;;
60819;SDS011;46641;48.904;9.126;2023-02-15T21:26:52;29.02;;;22.48;;
60819;SDS011;46641;48.904;9.126;2023-02-15T21:31:44;32.47;;;24.80;;
60819;SDS011;46641;48.904;9.126;2023-02-15T21:36:35;29.23;;;23.07;;
60819;SDS011;46641;48.904;9.126;2023-02-15T21:41:25;28.27;;;22.23;;
60819;SDS011;46641;48.904;9.126;2023-02-15T21:46:34;42.37;;;33.07;;
60819;SDS011;46641;48.904;9.126;2023-02-15T21:51:43;34.90;;;25.63;;
60819;SDS011;46641;48.904;9.126;2023-02-15T21:56:52;31.40;;;24.20;;
60819;SDS011;46641;48.904;9.126;2023-02-15T22:01:47;26.07;;;21.40;;
60819;SDS011;46641;48.904;9.126;2023-02-15T22:06:39;28.33;;;22.23;;
60819;SDS011;46641;48.904;9.126;2023-02-15T22:11:29;28.83;;;21.40;;
60819;SDS011;46641;48.904;9.126;2023-02-15T22:16:21;30.43;;;24.17;;
60819;SDS011;46641;48.904;9.126;2023-02-15T22:21:11;26.17;;;22.03;;
60819;SDS011;46641;48.904;9.126;2023-02-15T22:26:03;22.70;;;18.67;;
60819;SDS011;46641;48.904;9.126;2023-02-15T22:30:56;23.77;;;19.17;;
60819;SDS011;46641;48.904;9.126;2023-02-15T22:35:47;25.43;;;19.33;;
60819;SDS011;46641;48.904;9.126;2023-02-15T22:40:37;25.07;;;20.80;;
60819;SDS011;46641;48.904;9.126;2023-02-15T22:45:29;23.30;;;19.70;;
60819;SDS011;46641;48.904;9.126;2023-02-15T22:50:25;24.87;;;19.97;;
60819;SDS011;46641;48.904;9.126;2023-02-15T22:55:19;24.90;;;18.63;;
60819;SDS011;46641;48.904;9.126;2023-02-15T23:00:14;23.27;;;17.87;;
60819;SDS011;46641;48.904;9.126;2023-02-15T23:05:09;21.20;;;17.50;;
60819;SDS011;46641;48.904;9.126;2023-02-15T23:10:06;23.47;;;17.87;;
60819;SDS011;46641;48.904;9.126;2023-02-15T23:15:10;21.83;;;17.87;;
60819;SDS011;46641;48.904;9.126;2023-02-15T23:20:00;21.93;;;17.67;;
60819;SDS011;46641;48.904;9.126;2023-02-15T23:24:51;22.25;;;18.58;;
60819;SDS011;46641;48.904;9.126;2023-02-15T23:29:41;23.90;;;18.03;;
60819;SDS011;46641;48.904;9.126;2023-02-15T23:34:32;21.83;;;16.17;;
60819;SDS011;46641;48.904;9.126;2023-02-15T23:39:23;23.63;;;19.00;;
60819;SDS011;46641;48.904;9.126;2023-02-15T23:44:34;24.97;;;17.73;;
60819;SDS011;46641;48.904;9.126;2023-02-15T23:49:25;21.67;;;17.73;;
60819;SDS011;46641;48.904;9.126;2023-02-15T23:54:16;25.87;;;19.70;;
60819;SDS011;46641;48.904;9.126;2023-02-15T23:59:10;20.83;;;16.23;;
